Tiempo atmosférico en la estación meteorológica de Colmenar Viejo, Madrid (1004 m.)



Fecha
DESCASC
Temp. máxima en grados centígrados (hora)
DESCASC
Temp. mínima en grados centígrados (hora)
DESCASC
Temp. media en grados centígrados
DESCASC
Racha de viento máxima en m/sg (hora)
DESCASC
Velocidad máxima media en intervalos de 10 minutos(hora)
DESCASC
Precipitaciones diarias en mm
DESCASC
Precipitaciones de 00:00 a 06:00 en mm
DESCASC
Precipitaciones de 06:00 a 12:00 en mm
DESCASC
Precipitaciones de 12:00 a 18:00 en mm
DESCASC
Precipitaciones de 18:00 a 24:00 en mm
DESCASC
08-12-2019 6.1 (00:00) 1.5 (23:59) 3.8 4.72 (23:59) 1.94 (10:20) 0.2 0 0.1 0 0.1
07-12-2019 11.4 (14:20) 3.5 (08:20) 7.4 3.33 (14:40) 2.22 (16:20) 0 0 0 0 0
06-12-2019 10.7 (15:00) 2.9 (08:50) 6.8 8.33 (02:50) 5.28 (02:40) 0 0 0 0 0
05-12-2019 9.8 (13:10) 4.9 (00:00) 7.4 13.06 (10:50) 8.61 (13:30) 1.2 0.5 0.3 0.2 0.2
04-12-2019 9.7 (14:10) 2.9 (00:00) 6.3 11.11 (15:50) 7.5 (17:00) 1.5 0.7 0 0.8 0
03-12-2019 7.2 (14:30) -0.6 (-00:0) 3.3 7.5 (23:20) 4.17 (23:20) 0 0 0 0 0
02-12-2019 8.3 (15:00) 2.3 (00:00) 5.3 12.22 (12:40) 9.17 (12:40) 0.3 0.2 0 0.1 0
01-12-2019 4.9 (14:20) 1.6 (00:00) 3.3 12.22 (23:50) 6.94 (23:20) 13.6 0.1 0.6 7.6 5.3
30-11-2019 10.1 (14:20) 4.1 (00:00) 7.1 10 (13:10) 5.83 (13:10) 5.1 0 0 0.1 5
29-11-2019 11.7 (14:50) 7.8 (00:00) 9.8 6.94 (06:40) 4.17 (05:40) 0.2 0 0.1 0.1 0
28-11-2019 9.2 (14:30) 4 (00:00) 6.6 8.33 (03:30) 5 (03:40) 0 0 0 0 0
27-11-2019 11 (13:00) 5.6 (00:00) 8.3 12.22 (04:00) 6.94 (06:40) 0.6 0.6 0 0 0
26-11-2019 9.5 (16:50) 5.4 (00:00) 7.5 12.78 (20:50) 6.94 (21:50) 1.2 0 0.2 0.5 0.5
25-11-2019 14 (14:30) 4.9 (00:00) 9.5 10.28 (13:30) 5 (06:50) 1.4 1.4 0 0 0
24-11-2019 9.5 (15:20) 3.3 (00:00) 6.4 8.33 (03:20) 4.44 (07:40) 0 0 0 0 0
23-11-2019 8.6 (15:20) 2.6 (00:00) 5.6 16.67 (04:10) 8.33 (04:40) 2.9 2.7 0.2 0 0
22-11-2019 8.3 (16:40) 4 (00:00) 6.2 13.33 (20:10) 5.83 (19:40) 21.6 2.6 9.4 9.4 0.2
21-11-2019 5.6 (14:10) 1.3 (00:00) 3.4 6.39 (14:40) 3.61 (14:40) 0.2 0 0.1 0.1 0
20-11-2019 4.5 (13:30) 0.4 (00:00) 2.5 7.5 (14:00) 2.78 (14:30) 3 0 0 2.4 0.6
19-11-2019 6.4 (13:50) -0.6 (-00:0) 2.9 9.17 (20:40) 2.78 (16:20) 0 0 0 0 0
18-11-2019 8.7 (14:30) 1.8 (00:00) 5.2 12.5 (09:50) 6.11 (09:50) 0 0 0 0 0
17-11-2019 4.9 (22:50) 0.5 (00:00) 2.7 9.17 (04:20) 4.17 (04:20) 1 0 0 0.8 0.2
16-11-2019 7.5 (15:10) -1.2 (-00:0) 3.1 9.17 (21:20) 4.44 (22:40) 0 0 0 0 0
15-11-2019 4.5 (14:30) 0.7 (00:00) 2.6 8.61 (02:10) 3.61 (04:30) 0.1 0 0 0 0.1
14-11-2019 8.1 (00:10) 1 (00:00) 4.6 18.89 (19:30) 8.61 (14:20) 3.8 0.1 1.3 0.7 1.7
13-11-2019 13.4 (14:30) 5.7 (00:00) 9.5 14.17 (11:00) 8.89 (11:20) 3.2 2.6 0.6 0 0
12-11-2019 9.4 (12:30) 1.3 (00:00) 5.3 9.44 (19:20) 5.56 (23:50) 0.8 0 0 0 0.8
11-11-2019 8.4 (16:30) 1.6 (05:40) 5 9.17 (19:40) 4.44 (23:30) 0 0 0 0 0
10-11-2019 5.9 (00:10) 1.5 (00:00) 3.7 13.61 (00:20) 6.39 (00:10) 2.3 2 0 0.3 0
09-11-2019 8.7 (14:30) 0.9 (00:00) 4.8 13.89 (23:40) 6.11 (17:30) 0 0 0 0 0

Gráficas

Temp. máximas Temp. mínimas Temp. medias Precipitaciones Rachas de viento máximas Velocidades máximas media en intervalos de 10 minutos

Datos horarios

Fecha y hora oficial Temperatura (ºC) Velocidad del viento (km/h) Dirección del viento Racha (km/h) Dirección de racha Precipitación (mm) Presión (hPa) Tendencia (hPa) Humedad (%)
2019-12-08 23:00:00 3.7 4 Este 16 Norte 0 910.5 0.6 99
2019-12-08 22:00:00 4.7 0 Calma 17 Noroeste 0 910.4 0.9 99
2019-12-08 21:00:00 3.8 3 Norte 9 Norte 0 909.9 0.7 99
2019-12-08 20:00:00 3.7 0 Calma 7 Oeste 0.1 909.9 0.9 99
2019-12-08 19:00:00 3.4 0 Calma 11 Nordeste 0 909.5 0.3 99
2019-12-08 18:00:00 3.5 0 Calma 6 Sudoeste 0 909.2 0 99
2019-12-08 17:00:00 3.8 2 Este 6 Este 0 909 -0.3 99
2019-12-08 16:00:00 3.7 3 Sudoeste 10 Este 0 909.2 -0.1 99
2019-12-08 15:00:00 3.3 0 Calma 6 Sudeste 0 909.2 -0.7 99
2019-12-08 14:00:00 3 3 Sudeste 10 Sudeste 0 909.3 -0.7 99
2019-12-08 13:00:00 3.2 4 Sudeste 11 Sur 0 909.3 -0.5 99
2019-12-08 12:00:00 3.7 5 Sudeste 10 Este 0 909.9 0.3 99
2019-12-08 11:00:00 4.1 2 Sudoeste 12 Este 0 910 0.6 99
2019-12-08 10:00:00 3 0 Calma 9 Norte 0 909.8 0.8 99
2019-12-08 09:00:00 2.2 2 Nordeste 9 Este 0.1 909.6 1 99
2019-12-08 08:00:00 2.5 0 Calma 9 Oeste 0 909.4 0.5 99
2019-12-08 07:00:00 3.7 0 Calma 8 Este 0 909 0 99
2019-12-08 06:00:00 3.5 5 Sudeste 8 Este 0 908.6 -0.8 99
2019-12-08 05:00:00 4.3 0 Calma 4 Sudoeste 0 908.9 -0.7 97
2019-12-08 04:00:00 4.5 0 Calma 5 Sudeste 0 909 -1.3 96
2019-12-08 03:00:00 5.3 2 Sur 4 Noroeste 0 909.4 -0.8 95
2019-12-08 02:00:00 5 3 Norte 7 Noroeste 0 909.6 -0.4 94
2019-12-08 01:00:00 5.1 2 Noroeste 6 Este 0 910.3 0.7 93
2019-12-08 00:00:00 6.1 3 Este 6 Norte 0 910.2 0.8 91
2019-12-07 23:00:00 5.9 3 Noroeste 9 Noroeste 0 910 1 91
2019-12-07 22:00:00 5.8 6 Noroeste 11 Norte 0 909.6 0.9 91
2019-12-07 21:00:00 6 6 Noroeste 10 Noroeste 0 909.4 1 89
2019-12-07 20:00:00 6.4 5 Sudoeste 10 Sur 0 909 0.9 83
2019-12-07 19:00:00 7.1 3 Sudeste 6 Sur 0 908.7 0.8 79
2019-12-07 18:00:00 8.4 3 Sur 10 Sur 0 908.4 0.4 71
2019-12-07 17:00:00 9.9 6 Sur 12 Sudeste 0 908.1 -0.1 67
2019-12-07 16:00:00 10.5 6 Sur 12 Sudeste 0 907.9 -0.9 65
2019-12-07 15:00:00 11.1 5 Sur 12 Sur 0 908 -1.4 64
2019-12-07 14:00:00 10.9 3 Sudoeste 8 Sudoeste 0 908.2 -1.1 64
2019-12-07 13:00:00 9.4 4 Sudeste 10 Sudeste 0 908.8 -0.2 73
2019-12-07 12:00:00 8.7 5 Sur 10 Sur 0 909.4 0.7 77
2019-12-07 11:00:00 7.6 4 Sur 8 Sur 0 909.3 0.9 82
2019-12-07 10:00:00 6.1 0 Calma 6 Oeste 0 909 0.8 91
2019-12-07 09:00:00 3.9 4 Noroeste 6 Noroeste 0 908.7 0.6 93
2019-12-07 08:00:00 3.6 3 Noroeste 5 Noroeste 0 908.4 0.4 91
2019-12-07 07:00:00 4.2 3 Noroeste 5 Noroeste 0 908.2 -0.1 90
2019-12-07 06:00:00 4.4 4 Noroeste 7 Noroeste 0 908.1 -0.3 88
2019-12-07 05:00:00 4.6 2 Noroeste 8 Norte 0 908 -0.4 88
2019-12-07 04:00:00 4.5 5 Noroeste 9 Noroeste 0 908.3 -0.3 90
2019-12-07 03:00:00 4.1 3 Noroeste 6 Noroeste 0 908.4 -0.3 91
2019-12-07 02:00:00 4.3 4 Noroeste 7 Noroeste 0 908.4 -0.4 91
2019-12-07 01:00:00 4.3 4 Noroeste 6 Noroeste 0 908.6 0.4 89
2019-12-07 00:00:00 4 4 Noroeste 11 Sudoeste 0 908.7 0.7 88
2019-12-06 23:00:00 5 4 Oeste 9 Oeste 0 908.8 1.1 85
2019-12-06 22:00:00 5.2 3 Oeste 6 Sudoeste 0 908.2 0.8 77
2019-12-06 21:00:00 5.8 3 Noroeste 6 Norte 0 908 1 75
2019-12-06 20:00:00 6.1 2 Oeste 4 Nordeste 0 907.7 0.8 73
2019-12-06 19:00:00 6.6 3 Nordeste 9 Sudeste 0 907.4 0.6 69
2019-12-06 18:00:00 7.8 6 Sudeste 10 Sudeste 0 907 0.1 62
2019-12-06 17:00:00 9.4 6 Sudeste 11 Sur 0 906.9 -0.4 59
2019-12-06 16:00:00 10.3 6 Sudeste 14 Sudeste 0 906.8 -1.1 58
2019-12-06 15:00:00 10.5 6 Sur 13 Sudeste 0 906.9 -1.3 59
2019-12-06 14:00:00 9.9 4 Sudeste 13 Este 0 907.3 -1.3 60
2019-12-06 13:00:00 9.6 6 Este 16 Este 0 907.9 -0.4 61
2019-12-06 12:00:00 8.6 10 Este 15 Este 0 908.2 0.4 70
2019-12-06 11:00:00 6 3 Oeste 13 Nordeste 0 908.6 1 79
2019-12-06 10:00:00 5.4 6 Nordeste 17 Nordeste 0 908.3 1.3 84
2019-12-06 09:00:00 3.6 4 Norte 13 Noroeste 0 907.8 1.1 88
2019-12-06 08:00:00 3.2 5 Noroeste 18 Nordeste 0 907.6 1.1 84
2019-12-06 07:00:00 4.6 12 Este 18 Este 0 907 0.2 81
2019-12-06 06:00:00 5.3 9 Este 19 Norte 0 906.7 0.1 79
2019-12-06 05:00:00 5.3 10 Norte 19 Nordeste 0 906.5 -0.3 79
2019-12-06 04:00:00 5.6 8 Nordeste 22 Nordeste 0 906.8 -0.4 79
2019-12-06 03:00:00 5.9 15 Nordeste 30 Nordeste 0 906.6 -0.6 79
2019-12-06 02:00:00 5.7 9 Nordeste 20 Nordeste 0 906.8 -0.1 81
2019-12-06 01:00:00 5.6 15 Nordeste 27 Nordeste 0 907.2 0.7 78
2019-12-06 00:00:00 5.7 9 Nordeste 26 Nordeste 0 907.2 1.2 78
2019-12-05 23:00:00 5.5 9 Nordeste 33 Nordeste 0 906.9 1.3 79
2019-12-05 22:00:00 5.5 17 Nordeste 36 Nordeste 0 906.5 1.7 79
2019-12-05 21:00:00 5.8 20 Nordeste 36 Este 0.2 906 1.5 76
2019-12-05 20:00:00 5.7 9 Nordeste 36 Nordeste 0 905.6 1.5 76
2019-12-05 19:00:00 6.4 21 Este 30 Este 0 904.8 1 71
2019-12-05 18:00:00 7.6 19 Nordeste 31 Nordeste 0 904.5 1 67
2019-12-05 17:00:00 7.8 24 Este 35 Este 0 904.1 0.7 66
2019-12-05 16:00:00 8.3 20 Nordeste 36 Este 0 903.8 0.5 65
2019-12-05 15:00:00 9 20 Este 36 Este 0 903.5 -0.2 62
2019-12-05 14:00:00 9.2 27 Este 41 Este 0 903.4 0 62
2019-12-05 13:00:00 9.5 22 Este 39 Este 0.2 903.3 0.6 62
2019-12-05 12:00:00 8.2 21 Nordeste 38 Nordeste 0 903.7 1.8 66
2019-12-05 11:00:00 7.1 21 Nordeste 47 Nordeste 0 903.4 2.3 72
2019-12-05 10:00:00 5.8 22 Nordeste 38 Nordeste 0 902.7 2.3 75
2019-12-05 09:00:00 5.6 12 Nordeste 30 Nordeste 0.1 901.9 2 79
2019-12-05 08:00:00 5.5 9 Nordeste 28 Nordeste 0.1 901.1 1.4 80
2019-12-05 07:00:00 5.7 11 Nordeste 31 Nordeste 0.1 900.4 1.1 79
2019-12-05 06:00:00 5 8 Nordeste 24 Nordeste 0.3 899.9 0.9 83
2019-12-05 05:00:00 5.4 9 Nordeste 33 Este 0.2 899.7 1.3 75
2019-12-05 04:00:00 6.5 20 Nordeste 31 Este 0 899.3 1.1 68
2019-12-05 03:00:00 5.9 12 Este 26 Este 0 899 1.3 71
2019-12-05 02:00:00 6.9 5 Norte 14 Norte 0 898.4 1.4 69
2019-12-05 01:00:00 5.3 5 Noroeste 17 Este 0 898.2 1.5 79
2019-12-05 00:00:00 5.9 10 Este 17 Sudeste 0 897.7 1 75
2019-12-04 23:00:00 6.9 2 Sudeste 16 Nordeste 0 897 0.8 64
2019-12-04 22:00:00 7.4 8 Nordeste 19 Norte 0 896.7 0.8 64
2019-12-04 21:00:00 7 8 Nordeste 20 Nordeste 0 896.7 0.9 66
2019-12-04 20:00:00 6.9 8 Nordeste 22 Nordeste 0 896.2 0.7 73
2019-12-04 19:00:00 6.9 7 Nordeste 22 Nordeste 0 895.9 1.3 77
2019-12-04 18:00:00 7.1 9 Nordeste 35 Este 0.8 895.8 1.4 76
2019-12-04 17:00:00 7.8 27 Nordeste 37 Este 0 895.5 1.2 70
2019-12-04 16:00:00 8.7 23 Nordeste 40 Nordeste 0 894.6 -0.6 64
2019-12-04 15:00:00 9.4 20 Nordeste 34 Este 0 894.4 -1.3 65
2019-12-04 14:00:00 9.6 9 Nordeste 28 Nordeste 0 894.3 -1.9 67
2019-12-04 13:00:00 7.6 17 Nordeste 35 Nordeste 0 895.2 -0.9 75
2019-12-04 12:00:00 7.5 21 Nordeste 35 Nordeste 0 895.7 -0.8 77
2019-12-04 11:00:00 6.6 20 Nordeste 35 Nordeste 0 896.2 -0.3 81
2019-12-04 10:00:00 5.5 12 Nordeste 29 Nordeste 0 896.1 -0.4 86
2019-12-04 09:00:00 4.8 9 Nordeste 22 Nordeste 0 896.5 -0.2 91
2019-12-04 08:00:00 4.5 7 Nordeste 27 Norte 0 896.5 -0.6 91
2019-12-04 07:00:00 4.3 11 Nordeste 27 Nordeste 0 896.5 -1.3 91
2019-12-04 06:00:00 4.1 10 Nordeste 28 Norte 0.1 896.7 -1.3 91
2019-12-04 05:00:00 3.9 10 Nordeste 30 Nordeste 0.4 897.1 -1.6 93
2019-12-04 04:00:00 3.9 11 Nordeste 28 Nordeste 0.1 897.8 -1.6 84
2019-12-04 03:00:00 3.2 13 Nordeste 30 Nordeste 0.1 898 -1.8 79
2019-12-04 02:00:00 3.5 25 Este 33 Nordeste 0 898.7 -0.9 71
2019-12-04 01:00:00 3.7 17 Este 30 Nordeste 0 899.4 -0.4 67
2019-12-04 00:00:00 3.9 8 Nordeste 27 Nordeste 0 899.8 0 67
2019-12-03 23:00:00 4 10 Nordeste 22 Nordeste 0 899.6 -0.1 67
2019-12-03 22:00:00 4.2 6 Nordeste 20 Nordeste 0 899.8 0.3 68
2019-12-03 21:00:00 4.2 12 Nordeste 22 Este 0 899.8 0.4 69
2019-12-03 20:00:00 3.8 5 Nordeste 17 Nordeste 0 899.7 0.7 70
2019-12-03 19:00:00 3.5 6 Este 17 Nordeste 0 899.5 0.6 67
2019-12-03 18:00:00 3.7 10 Este 18 Este 0 899.4 0.4 67
2019-12-03 17:00:00 5.5 11 Este 15 Este 0 899 -0.7 60
2019-12-03 16:00:00 6.4 9 Este 18 Sudeste 0 898.9 -1.5 53
2019-12-03 15:00:00 6.8 10 Este 17 Este 0 899 -2 46
2019-12-03 14:00:00 6.9 8 Este 17 Este 0 899.7 -1.8 44
2019-12-03 13:00:00 6.7 9 Este 24 Sudeste 0 900.4 -1.1 44
2019-12-03 12:00:00 5.7 8 Este 21 Este 0 901 -0.4 48
2019-12-03 11:00:00 3.9 0 Calma 12 Nordeste 0 901.5 0.1 57
2019-12-03 10:00:00 3.1 5 Sudeste 15 Sudeste 0 901.5 0 60
2019-12-03 09:00:00 0.8 5 Este 10 Nordeste 0 901.4 -0.2 67
2019-12-03 08:00:00 0.3 0 Calma 8 Nordeste 0 901.4 -0.3 66
2019-12-03 07:00:00 0.2 5 Noroeste 15 Este 0 901.5 -0.4 69
2019-12-03 06:00:00 0.5 4 Sudeste 13 Este 0 901.6 -0.3 69
2019-12-03 05:00:00 1.1 6 Este 11 Este 0 901.7 -0.6 70
2019-12-03 04:00:00 0.5 3 Este 9 Noroeste 0 901.9 -0.9 72
2019-12-03 03:00:00 0.6 4 Noroeste 12 Noroeste 0 901.9 -1.1 71
2019-12-03 02:00:00 2.9 4 Nordeste 17 Nordeste 0 902.3 -0.9 61
2019-12-03 01:00:00 3.1 6 Norte 26 Nordeste 0 902.8 -0.4 60
2019-12-03 00:00:00 3.5 13 Nordeste 27 Nordeste 0 903 -0.3 61
2019-12-02 23:00:00 3.2 12 Nordeste 23 Nordeste 0 903.2 0.2 63
2019-12-02 22:00:00 4 10 Nordeste 32 Nordeste 0 903.2 0.8 59
2019-12-02 21:00:00 4.3 14 Nordeste 27 Nordeste 0 903.3 1.5 59
2019-12-02 20:00:00 4.6 14 Nordeste 39 Este 0 903 1.5 58
2019-12-02 19:00:00 5.2 28 Nordeste 41 Nordeste 0 902.4 1.5 56
2019-12-02 18:00:00 5.6 27 Este 38 Este 0 901.8 1 58
2019-12-02 17:00:00 6.7 21 Este 39 Este 0 901.5 0.4 57
2019-12-02 16:00:00 8 27 Este 42 Nordeste 0 900.9 -0.5 53
2019-12-02 15:00:00 8.1 24 Este 44 Este 0 900.8 -0.9 54
2019-12-02 14:00:00 7.8 30 Este 44 Este 0.1 901.1 -0.4 57
2019-12-02 13:00:00 7.4 27 Este 44 Nordeste 0 901.4 0.6 60
2019-12-02 12:00:00 6.5 28 Este 44 Este 0 901.7 1.5 65
2019-12-02 11:00:00 4.8 28 Nordeste 39 Este 0 901.5 2 67
2019-12-02 10:00:00 4.8 15 Nordeste 31 Nordeste 0 900.8 1.5 67
2019-12-02 09:00:00 3 13 Nordeste 31 Nordeste 0 900.2 1.2 76
2019-12-02 08:00:00 2.6 13 Nordeste 28 Nordeste 0 899.5 0.8 78
2019-12-02 07:00:00 2.7 9 Nordeste 24 Norte 0 899.3 0.7 79
2019-12-02 06:00:00 3.1 11 Nordeste 25 Norte 0 899 0.8 80
2019-12-02 05:00:00 3.1 6 Nordeste 29 Nordeste 0 898.7 0.3 82
2019-12-02 04:00:00 4.2 22 Nordeste 34 Nordeste 0 898.6 0.4 76
2019-12-02 03:00:00 4.6 21 Nordeste 40 Nordeste 0 898.2 0.1 75
2019-12-02 02:00:00 4.5 14 Nordeste 32 Nordeste 0.1 898.4 0.6 84
2019-12-02 01:00:00 4.7 19 Nordeste 43 Este 0.1 898.2 0.7 85
2019-12-02 00:00:00 4.7 22 Nordeste 44 Nordeste 0.7 898.1 0.7 94
2019-12-01 23:00:00 4.4 16 Nordeste 40 Nordeste 0.1 897.8 0.4 99
2019-12-01 22:00:00 4.4 9 Nordeste 25 Nordeste 0.2 897.5 0.7 99
2019-12-01 21:00:00 4 10 Nordeste 29 Nordeste 0.8 897.4 0.9 99
2019-12-01 20:00:00 4.3 9 Nordeste 24 Norte 1.7 897.4 1.2 99
2019-12-01 19:00:00 4.4 9 Nordeste 22 Nordeste 1.8 896.8 0.4 99
2019-12-01 18:00:00 4.3 7 Nordeste 20 Nordeste 3 896.5 -0.1 99
2019-12-01 17:00:00 4.3 7 Nordeste 23 Norte 1.8 896.2 -0.7 99
2019-12-01 16:00:00 4.4 8 Nordeste 20 Nordeste 1.5 896.4 -1 99
2019-12-01 15:00:00 4.6 7 Nordeste 21 Norte 0.5 896.6 -1.4 99
2019-12-01 14:00:00 4.7 4 Nordeste 15 Norte 0.4 896.9 -1.3 99
2019-12-01 13:00:00 4.5 5 Nordeste 17 Nordeste 0.4 897.4 -0.7 99
2019-12-01 12:00:00 4.1 3 Norte 10 Este 0.5 898 0.3 99
2019-12-01 11:00:00 3.9 9 Este 15 Este 0.1 898.2 0.2 99
2019-12-01 10:00:00 3.5 3 Sudeste 10 Norte 0 898.1 0.4 99
2019-12-01 09:00:00 2.5 2 Nordeste 7 Nordeste 0 897.7 0.1 99
2019-12-01 08:00:00 2.1 2 Norte 14 Norte 0 898 0 99
2019-12-01 07:00:00 1.7 4 Noroeste 12 Este 0 897.7 -1 99
2019-12-01 06:00:00 2.5 8 Este 13 Este 0 897.6 -1.5 99
2019-12-01 05:00:00 3.3 7 Nordeste 12 Nordeste 0 898 -1.5 99
2019-12-01 04:00:00 3.4 0 Calma 6 Este 0 898.7 -1.3 99
2019-12-01 03:00:00 3.4 0 Calma 6 Este 0 899.1 -1 99
2019-12-01 02:00:00 3.9 0 Calma 12 Sudeste 0 899.5 -0.6 99
2019-12-01 01:00:00 4 6 Este 14 Sudeste 0.1 900 -0.1 99
2019-12-01 00:00:00 4.2 6 Sudeste 15 Sudeste 0 900.1 -0.5 99
2019-11-30 23:00:00 5.4 11 Sudeste 15 Sudeste 0.2 900.1 -0.4 96
2019-11-30 22:00:00 5.7 5 Oeste 26 Oeste 1.4 900.1 -0.1 87
2019-11-30 21:00:00 6.4 10 Oeste 26 Oeste 1.8 900.6 -0.5 95
2019-11-30 20:00:00 7.4 5 Noroeste 14 Oeste 1.1 900.5 -0.9 99
2019-11-30 19:00:00 7.7 5 Sudoeste 26 Sudoeste 0.5 900.2 -1.7 99
2019-11-30 18:00:00 8.6 14 Sudoeste 34 Sur 0.1 901.1 -1 99
2019-11-30 17:00:00 8.9 14 Sudoeste 36 Sudoeste 0 901.4 -1.6 99
2019-11-30 16:00:00 9.5 19 Sudoeste 33 Sudoeste 0 901.9 -2 95
2019-11-30 15:00:00 9.5 21 Sudoeste 32 Sudoeste 0 902.1 -2.6 97
2019-11-30 14:00:00 9.8 16 Sudoeste 36 Sudoeste 0 903 -2.3 99
2019-11-30 13:00:00 8.9 18 Sudoeste 31 Sudoeste 0 903.9 -1.5 99
2019-11-30 12:00:00 9.1 17 Sudoeste 25 Sudoeste 0 904.7 -0.3 99
2019-11-30 11:00:00 9.2 9 Sudoeste 21 Sudoeste 0 905.3 0.1 99
2019-11-30 10:00:00 9 10 Sudoeste 21 Sudoeste 0 905.4 0.2 99
2019-11-30 09:00:00 8.9 9 Sudoeste 17 Sudoeste 0 905 -0.6 99
2019-11-30 08:00:00 8.6 0 Calma 7 Sudoeste 0 905.2 -0.6 99
2019-11-30 07:00:00 8.6 2 Oeste 17 Sudoeste 0 905.2 -0.8 99
2019-11-30 06:00:00 9 6 Sudoeste 12 Sudoeste 0 905.6 -0.6 99
2019-11-30 05:00:00 8.7 3 Sur 8 Sudoeste 0 905.8 -0.7 99
2019-11-30 04:00:00 8.4 4 Noroeste 10 Oeste 0 906 -0.9 99
2019-11-30 03:00:00 8.7 0 Calma 8 Oeste 0 906.2 -0.8 99
2019-11-30 02:00:00 8.9 0 Calma 7 Sudoeste 0 906.5 -0.3 99
2019-11-30 01:00:00 8.8 0 Calma 4 Oeste 0 906.9 0.1 99
2019-11-30 00:00:00 8.9 0 Calma 5 Sudoeste 0 907 0.3 99
2019-11-29 23:00:00 9.1 0 Calma 7 Sudoeste 0 906.8 0.3 99
2019-11-29 22:00:00 9.3 0 Calma 6 Sudeste 0 906.8 0.5 99
2019-11-29 21:00:00 9.6 3 Sudeste 5 Sudeste 0 906.7 0.5 99
2019-11-29 20:00:00 9.7 0 Calma 6 Sudoeste 0 906.5 0.7 99
2019-11-29 19:00:00 10 3 Sur 21 Sur 0 906.3 0.9 99
2019-11-29 18:00:00 10.6 5 Sur 15 Sudoeste 0 906.2 0.6 99
2019-11-29 17:00:00 10.9 6 Sur 13 Sur 0 905.8 0.1 99
2019-11-29 16:00:00 10.9 6 Sur 17 Sudoeste 0.1 905.4 -0.7 99
2019-11-29 15:00:00 11.6 10 Sudoeste 18 Sudoeste 0 905.6 -0.8 99
2019-11-29 14:00:00 11.3 5 Sur 9 Sur 0 905.7 -0.7 99
2019-11-29 13:00:00 10.3 0 Calma 8 Oeste 0 906.1 0.4 99
2019-11-29 12:00:00 9.9 0 Calma 7 Nordeste 0 906.4 1.7 99
2019-11-29 11:00:00 9.3 5 Este 10 Este 0 906.4 2 99
2019-11-29 10:00:00 8.8 6 Este 10 Este 0 905.7 2 99
2019-11-29 09:00:00 8.1 7 Este 14 Este 0.1 904.7 1.3 99
2019-11-29 08:00:00 8.1 4 Sudeste 17 Sudoeste 0 904.4 1.3 99
2019-11-29 07:00:00 8.6 13 Sudoeste 25 Sudoeste 0 903.7 0.5 99
2019-11-29 06:00:00 8.2 12 Sudoeste 23 Sudoeste 0 903.4 0.4 99
2019-11-29 05:00:00 8.2 12 Sudoeste 23 Sudoeste 0 903.1 0.3 99
2019-11-29 04:00:00 8.3 10 Sudoeste 20 Sudoeste 0 903.2 0.5 99
2019-11-29 03:00:00 8.2 10 Sudoeste 18 Sudoeste 0 903 0.1 99
2019-11-29 02:00:00 8 6 Sudoeste 16 Sur 0 902.8 0.1 99
2019-11-29 01:00:00 8 6 Sur 18 Sudoeste 0 902.7 0 99
2019-11-29 00:00:00 7.8 10 Sudoeste 19 Sudoeste 0 902.9 0.1 99
2019-11-28 23:00:00 7.6 8 Sudoeste 18 Sudoeste 0 902.7 0.5 99
2019-11-28 22:00:00 7.4 10 Sudoeste 25 Sudoeste 0 902.7 0.8 99
2019-11-28 21:00:00 7.5 13 Sudoeste 25 Sudoeste 0 902.8 0.9 99
2019-11-28 20:00:00 7.2 7 Sudoeste 17 Sudoeste 0 902.2 0.6 99
2019-11-28 19:00:00 7.4 10 Sudoeste 16 Sudoeste 0 901.9 0.5 99
2019-11-28 18:00:00 7.6 10 Sudoeste 24 Sur 0 901.9 0.3 99
2019-11-28 17:00:00 8.1 11 Sudoeste 23 Sudoeste 0 901.6 -0.5 97
2019-11-28 16:00:00 8.3 12 Sudoeste 25 Sur 0 901.4 -1.1 95
2019-11-28 15:00:00 8.6 10 Sur 22 Sudoeste 0 901.6 -1.4 88
2019-11-28 14:00:00 8.1 12 Sudoeste 27 Sudoeste 0 902.1 -0.8 98
2019-11-28 13:00:00 7.2 11 Sudoeste 21 Sudoeste 0 902.5 0 99
2019-11-28 12:00:00 7.2 8 Sudoeste 22 Sudoeste 0 903 1.1 99
2019-11-28 11:00:00 6.8 10 Sudoeste 21 Sudoeste 0 902.9 1.3 99
2019-11-28 10:00:00 6.2 11 Sudoeste 23 Sudoeste 0 902.5 1.4 99
2019-11-28 09:00:00 4.6 8 Sudoeste 19 Sudoeste 0 901.9 1.4 99
2019-11-28 08:00:00 4.2 11 Sudoeste 16 Sudoeste 0 901.6 1.2 99
2019-11-28 07:00:00 4.1 6 Sudoeste 15 Sudeste 0 901.1 1.1 99
2019-11-28 06:00:00 4.5 8 Este 17 Este 0 900.5 0.5 99
2019-11-28 05:00:00 4.4 12 Este 24 Sudoeste 0 900.4 0.6 99
2019-11-28 04:00:00 6.1 15 Sudoeste 30 Sudoeste 0 900 -0.1 85
2019-11-28 03:00:00 6.1 9 Sudoeste 17 Sudoeste 0 900 0 88
2019-11-28 02:00:00 5.8 10 Sudoeste 26 Sudoeste 0 899.8 -0.4 91
2019-11-28 01:00:00 5.8 15 Sudoeste 30 Sudoeste 0 900.1 0.4 99
2019-11-28 00:00:00 5.6 8 Sudoeste 23 Sudoeste 0 900 0.5 96
2019-11-27 23:00:00 6.2 9 Sudoeste 25 Sudoeste 0 900.2 0.9 95
2019-11-27 22:00:00 6.2 14 Sudoeste 21 Sudoeste 0 899.7 0.6 95
2019-11-27 21:00:00 6.7 12 Sudoeste 24 Sudoeste 0 899.5 0.9 88
2019-11-27 20:00:00 7.4 15 Sudoeste 23 Sudoeste 0 899.3 0.9 82
2019-11-27 19:00:00 7.8 13 Sudoeste 28 Sudoeste 0 899.1 1.4 83
2019-11-27 18:00:00 7.8 13 Sudoeste 26 Sudoeste 0 898.6 0.7 81
2019-11-27 17:00:00 8.4 15 Sudoeste 33 Sudoeste 0 898.4 0.4 75
2019-11-27 16:00:00 8.8 18 Sudoeste 30 Sudoeste 0 897.7 -0.8 73
2019-11-27 15:00:00 9 14 Sudoeste 26 Sudoeste 0 897.9 -1.2 74
2019-11-27 14:00:00 9.7 16 Sudoeste 35 Oeste 0 898 -0.9 66
2019-11-27 06:00:00 6.3 6 Sudoeste 26 Oeste 0 896.8 1.1 71
2019-11-27 05:00:00 7.1 14 Oeste 44 Sudoeste 0 895.5 0 81
2019-11-27 04:00:00 8 15 Oeste 44 Oeste 0 895.6 -0.3 89
2019-11-27 03:00:00 7.8 11 Sudoeste 27 Sudoeste 0 895.7 -0.1 99
2019-11-27 02:00:00 8.2 18 Sudoeste 31 Sudoeste 0.2 895.5 0 99
2019-11-27 01:00:00 8.2 13 Sudoeste 33 Sudoeste 0.4 895.9 0.4 99
2019-11-27 00:00:00 8.3 13 Oeste 28 Sudoeste 0 895.8 0.2 99
2019-11-26 23:00:00 8.6 18 Sudoeste 37 Sudoeste 0 895.5 -0.1 99
2019-11-26 22:00:00 8.7 22 Sudoeste 44 Sudoeste 0 895.5 -0.4 99
2019-11-26 21:00:00 9.3 21 Sudoeste 46 Sudoeste 0.4 895.6 -1.2 99
2019-11-26 20:00:00 9.3 24 Sudoeste 41 Sudoeste 0.1 895.6 -1.2 99
2019-11-26 19:00:00 9.3 18 Sudoeste 42 Sudoeste 0 895.9 -1.8 99
2019-11-26 18:00:00 9.2 13 Sudoeste 32 Sudoeste 0 896.8 -1.2 99
2019-11-26 17:00:00 9.5 18 Sudoeste 32 Oeste 0.2 896.8 -2.2 99
2019-11-26 16:00:00 9 16 Sudoeste 28 Sudoeste 0 897.7 -2 99
2019-11-26 15:00:00 8.4 6 Sudoeste 14 Sudoeste 0.1 898 -2.3 99
2019-11-26 14:00:00 8.2 7 Sudoeste 14 Sudoeste 0.2 899 -1.8 99
2019-11-26 13:00:00 7.9 6 Sudoeste 12 Sudoeste 0 899.7 -1.1 99
2019-11-26 12:00:00 7.9 6 Sur 10 Sudoeste 0 900.3 -0.3 99
2019-11-26 11:00:00 7.2 0 Calma 7 Oeste 0.1 900.8 0.4 99
2019-11-26 10:00:00 6.6 3 Noroeste 9 Oeste 0.1 900.8 0.5 99
2019-11-26 09:00:00 7 0 Calma 9 Oeste 0 900.6 0 99
2019-11-26 08:00:00 6.2 0 Calma 7 Norte 0 900.4 -0.5 99
2019-11-26 07:00:00 5.8 0 Calma 7 Nordeste 0 900.3 -0.9 99
2019-11-26 06:00:00 5.5 4 Nordeste 6 Este 0 900.6 -0.7 99
2019-11-26 05:00:00 5.5 2 Este 4 Sudeste 0 900.9 -0.7 98
2019-11-26 04:00:00 6.5 0 Calma 5 Este 0 901.2 -0.8 94
2019-11-26 03:00:00 6.8 6 Este 9 Sudeste 0 901.3 -0.4 85
2019-11-26 02:00:00 7.3 0 Calma 8 Sudeste 0 901.6 -0.2 73
2019-11-26 01:00:00 7.8 2 Noroeste 10 Noroeste 0 902 0.3 70
2019-11-26 00:00:00 8.1 6 Oeste 11 Oeste 0 901.7 0.2 70
2019-11-25 23:00:00 7.6 5 Noroeste 10 Noroeste 0 901.8 0.6 71
2019-11-25 22:00:00 8.9 4 Norte 9 Norte 0 901.7 0.5 67
2019-11-25 21:00:00 9.1 4 Norte 31 Este 0 901.5 0.9 66
2019-11-25 20:00:00 9.3 5 Oeste 18 Sudoeste 0 901.2 0.6 63
2019-11-25 19:00:00 10 7 Oeste 24 Oeste 0 901.2 1 58
2019-11-25 18:00:00 10.4 10 Oeste 31 Oeste 0 900.6 0.7 54
2019-11-25 17:00:00 11.5 15 Oeste 35 Sudoeste 0 900.6 0.9 49
2019-11-25 16:00:00 13 12 Oeste 35 Oeste 0 900.2 0 45
2019-11-25 15:00:00 13 16 Oeste 34 Oeste 0 899.9 -0.6 46
2019-11-25 14:00:00 13.8 13 Oeste 37 Oeste 0 899.7 -1 47
2019-11-25 13:00:00 12.8 14 Oeste 32 Oeste 0 900.2 -0.1 51
2019-11-25 12:00:00 12.5 12 Oeste 27 Sudoeste 0 900.5 0.3 57
2019-11-25 11:00:00 10.1 8 Sur 18 Oeste 0 900.7 0.9 83
2019-11-25 10:00:00 7.6 6 Sudeste 21 Oeste 0 900.3 1.2 98
2019-11-25 09:00:00 8.7 5 Oeste 25 Oeste 0 900.2 1.2 81
2019-11-25 08:00:00 6.9 5 Oeste 25 Sudoeste 0 899.8 0.5 99
2019-11-25 07:00:00 7 15 Sudoeste 34 Sudoeste 0 899.1 -0.2 99
2019-11-25 06:00:00 6.4 16 Sudoeste 29 Oeste 0 899 -0.3 99
2019-11-25 05:00:00 6.3 8 Sudoeste 13 Sudoeste 0.1 899.3 -0.2 99
2019-11-25 04:00:00 5.9 6 Sudeste 15 Sur 0.3 899.3 -0.6 99
2019-11-25 03:00:00 5.7 8 Sudoeste 19 Sudoeste 0.5 899.3 -0.8 99
2019-11-25 02:00:00 5.6 8 Sudoeste 18 Sudoeste 0.4 899.5 -0.9 99
2019-11-25 01:00:00 5.1 8 Sudoeste 26 Sudoeste 0.1 899.9 -0.1 99
2019-11-25 00:00:00 5.1 9 Sudoeste 16 Sudoeste 0 900.1 0.1 94
2019-11-24 23:00:00 5.5 9 Sudoeste 24 Sudoeste 0 900.4 0.5 79
2019-11-24 22:00:00 5.2 8 Sudoeste 15 Sudoeste 0 900 0.1 75
2019-11-24 21:00:00 6.1 9 Sudoeste 19 Sudoeste 0 900 0.2 74
2019-11-24 20:00:00 5.9 7 Sudoeste 22 Sudoeste 0 899.9 0 73
2019-11-24 19:00:00 6 10 Sudoeste 25 Sudoeste 0 899.9 0.4 71
2019-11-24 18:00:00 5.9 12 Sudoeste 27 Sudoeste 0 899.8 0.5 66
2019-11-24 17:00:00 7.6 13 Sudoeste 28 Oeste 0 899.9 -0.1 55
2019-11-24 16:00:00 7.9 13 Oeste 27 Oeste 0 899.5 -0.8 53
2019-11-24 15:00:00 9.1 5 Oeste 15 Sudoeste 0 899.3 -1.5 49
2019-11-24 14:00:00 7 7 Este 12 Este 0 900 -0.9 57
2019-11-24 13:00:00 6.4 0 Calma 12 Este 0 900.3 0.1 59
2019-11-24 12:00:00 6 8 Este 13 Este 0 900.8 1 62
2019-11-24 11:00:00 5 8 Sudeste 15 Este 0 900.9 1.7 66
2019-11-24 10:00:00 4.4 9 Este 17 Oeste 0 900.2 1.3 72
2019-11-24 09:00:00 3.8 7 Oeste 24 Oeste 0 899.8 1.2 66
2019-11-24 08:00:00 3.6 12 Oeste 30 Oeste 0 899.2 1.1 69
2019-11-24 07:00:00 3.9 4 Sudoeste 14 Sudoeste 0 898.9 1.2 72
2019-11-24 06:00:00 3.5 0 Calma 22 Sudeste 0 898.6 1.2 77
2019-11-24 05:00:00 3.4 5 Sur 17 Noroeste 0 898.1 0.7 75
2019-11-24 04:00:00 4.3 4 Norte 30 Noroeste 0 897.7 0.5 62
2019-11-24 03:00:00 4.3 10 Noroeste 22 Noroeste 0 897.4 0.6 63
2019-11-24 02:00:00 4.8 6 Noroeste 19 Oeste 0 897.4 1.6 61
2019-11-24 01:00:00 5.3 7 Noroeste 28 Oeste 0 897.2 1.9 58
2019-11-24 00:00:00 5.5 14 Noroeste 44 Oeste 0 896.8 2 55
2019-11-23 23:00:00 5.9 19 Noroeste 42 Noroeste 0 895.8 1.5 52
2019-11-23 22:00:00 5.7 5 Noroeste 55 Noroeste 0 895.3 1.3 51
2019-11-23 21:00:00 6.5 4 Sudoeste 36 Noroeste 0 894.8 1.7 47
2019-11-23 20:00:00 6.4 11 Noroeste 41 Noroeste 0 894.3 2.1 50
2019-11-23 19:00:00 5.9 9 Sudoeste 26 Oeste 0 894 2.8 53
2019-11-23 18:00:00 6.3 9 Oeste 34 Noroeste 0 893.1 2 52
2019-11-23 17:00:00 6.5 13 Noroeste 32 Noroeste 0 892.2 2 53
2019-11-23 16:00:00 8.3 4 Oeste 39 Sudoeste 0 891.2 1.3 48
2019-11-23 15:00:00 7.2 0 Calma 31 Sudoeste 0 891.1 1.6 52
2019-11-23 14:00:00 6.9 10 Sur 36 Noroeste 0 890.2 1.8 53
2019-11-23 13:00:00 6 15 Oeste 42 Noroeste 0 889.9 3.1 55
2019-11-23 12:00:00 5.6 12 Oeste 35 Oeste 0 889.5 3.9 55
2019-11-23 11:00:00 6.1 6 Oeste 22 Sudoeste 0 888.4 4.6 52
2019-11-23 10:00:00 4.5 3 Norte 31 Noroeste 0 886.8 4.7 62
2019-11-23 09:00:00 3.6 4 Oeste 35 Sudoeste 0 885.6 4.5 73
2019-11-23 08:00:00 3.6 15 Sudoeste 45 Sudoeste 0.1 883.8 2.9 73
2019-11-23 07:00:00 3.7 11 Sur 56 Oeste 0.1 882.1 2.6 76
2019-11-23 06:00:00 3.8 24 Sudoeste 55 Sudoeste 0.3 881.1 1.4 80
2019-11-23 05:00:00 2.8 23 Oeste 60 Oeste 2 880.9 1.2 92
2019-11-23 04:00:00 3.7 28 Oeste 57 Oeste 0.1 879.5 -0.4 77
2019-11-23 03:00:00 4.4 24 Oeste 57 Oeste 0 879.7 -0.6 66
2019-11-23 02:00:00 4.3 18 Oeste 53 Oeste 0 879.7 -0.7 83
2019-11-23 01:00:00 4.7 19 Oeste 43 Oeste 0.3 879.9 -0.7 91
2019-11-23 00:00:00 5.2 17 Sudoeste 30 Sudoeste 0.2 880.3 -0.1 99
2019-11-22 23:00:00 5.6 15 Sudoeste 28 Sudoeste 0 880.4 0.7 99
2019-11-22 22:00:00 6.4 10 Sudoeste 23 Sudoeste 0 880.6 1.1 99
2019-11-22 21:00:00 6.8 13 Sudoeste 48 Oeste 0 880.4 1 99
2019-11-22 20:00:00 6.4 18 Sudoeste 44 Sudoeste 0 879.7 0.5 99
2019-11-22 19:00:00 7.7 9 Sudoeste 25 Sudoeste 0 879.5 -0.2 99
2019-11-22 18:00:00 7.7 10 Sudoeste 21 Sudoeste 0 879.4 -1.2 99
2019-11-22 17:00:00 8.1 15 Sudoeste 28 Sudoeste 0.2 879.2 -2.7 99
2019-11-22 16:00:00 8.1 15 Sudoeste 30 Sudoeste 0.4 879.7 -3.7 99
2019-11-22 15:00:00 7.7 8 Sudoeste 30 Sudoeste 1.9 880.6 -4.2 99
2019-11-22 14:00:00 7.1 12 Sudoeste 27 Sudoeste 3.3 881.9 -4.1 99
2019-11-22 13:00:00 6.5 10 Sudoeste 24 Sur 3.6 883.4 -3.5 99
2019-11-22 12:00:00 6.2 11 Sur 24 Sur 2 884.8 -3.2 99
2019-11-22 11:00:00 5.6 9 Sur 19 Sur 2 886 -2.5 99
2019-11-22 10:00:00 5.2 5 Sur 18 Sudoeste 2.4 886.9 -1.9 99
2019-11-22 09:00:00 4.8 7 Sur 17 Sur 1.6 888 -1.9 99
2019-11-22 08:00:00 4.7 5 Sudoeste 17 Sudoeste 1.1 888.5 -1.7 99
2019-11-22 07:00:00 4.4 5 Sudoeste 15 Sudoeste 0.3 888.8 -2.2 99
2019-11-22 06:00:00 4.5 6 Sudoeste 15 Sur 0.9 889.9 -1.7 99
2019-11-22 05:00:00 4.6 5 Sur 12 Sudoeste 0.4 890.2 -1.8 99
2019-11-22 04:00:00 4.4 4 Sur 11 Oeste 0.9 891 -1.7 99
2019-11-22 03:00:00 4.3 0 Calma 4 Noroeste 0.4 891.6 -1.6 99
2019-11-22 02:00:00 4.2 3 Sur 6 Sudeste 0 892 -1.9 99
2019-11-22 01:00:00 4.1 3 Sudoeste 8 Sudoeste 0 892.7 -1.4 99
2019-11-22 00:00:00 4 2 Sudoeste 6 Sudoeste 0 893.2 -0.1 99
2019-11-21 23:00:00 3.7 2 Sudoeste 6 Sudoeste 0 893.9 0.2 99
2019-11-21 22:00:00 4.1 2 Sudoeste 9 Sudoeste 0 894.1 0.7 99
2019-11-21 21:00:00 4.4 4 Sudoeste 10 Sudoeste 0 893.3 0.1 99
2019-11-21 20:00:00 4.4 0 Calma 13 Este 0 893.7 0.6 99
2019-11-21 19:00:00 4.3 3 Sudeste 6 Sur 0 893.4 0.4 99
2019-11-21 18:00:00 4.5 4 Sur 12 Sudoeste 0 893.2 0.1 99
2019-11-21 17:00:00 4.9 6 Sudoeste 14 Sudoeste 0 893.1 -0.1 99
2019-11-21 16:00:00 5.3 8 Sudoeste 20 Sudoeste 0 893 -0.6 99
2019-11-21 15:00:00 4.9 13 Sudoeste 23 Sudoeste 0 893.1 -1.3 99
2019-11-21 14:00:00 5.5 7 Sudoeste 18 Sur 0 893.2 -1.2 99
2019-11-21 13:00:00 4.8 6 Sudoeste 13 Sudoeste 0.1 893.6 -0.6 99
2019-11-21 12:00:00 4 6 Sudoeste 14 Sudoeste 0 894.4 0.3 99
2019-11-21 11:00:00 3.5 2 Sudoeste 11 Oeste 0 894.4 0.7 99
2019-11-21 10:00:00 2.7 3 Oeste 6 Oeste 0.1 894.2 0.7 99
2019-11-21 09:00:00 2.3 0 Calma 5 Este 0 894.1 0.8 99
2019-11-21 08:00:00 2 0 Calma 3 Norte 0 893.7 0 99
2019-11-21 07:00:00 1.6 0 Calma 6 Oeste 0 893.5 -0.6 99
2019-11-21 06:00:00 1.4 2 Noroeste 12 Sudoeste 0 893.3 -0.8 99
2019-11-21 05:00:00 1.7 3 Sur 8 Sur 0 893.7 -0.4 99
2019-11-21 04:00:00 2 0 Calma 9 Sudoeste 0 894.1 -0.2 99
2019-11-21 03:00:00 2 0 Calma 12 Sudoeste 0 894.1 -0.3 99
2019-11-21 02:00:00 2.1 6 Sudoeste 15 Sudoeste 0 894.1 -0.3 99
2019-11-21 01:00:00 2.1 8 Sudoeste 15 Sudoeste 0 894.3 -0.1 99
2019-11-21 00:00:00 2.2 3 Sudoeste 8 Sudoeste 0 894.4 0 99
2019-11-20 23:00:00 2.2 3 Sudoeste 10 Oeste 0 894.4 0 99
2019-11-20 22:00:00 2.1 7 Sudoeste 13 Sudoeste 0.2 894.4 0.3 99
2019-11-20 21:00:00 2.1 5 Sudoeste 11 Sudoeste 0 894.4 0 99
2019-11-20 20:00:00 2 5 Sudoeste 11 Sudoeste 0.1 894.4 0.1 99
2019-11-20 19:00:00 1.8 5 Oeste 13 Oeste 0.3 894.1 -0.2 99
2019-11-20 18:00:00 2 8 Oeste 13 Oeste 0.7 894.4 -0.1 99
2019-11-20 17:00:00 2.8 6 Sudoeste 13 Oeste 0.5 894.3 -0.7 98
2019-11-20 16:00:00 3.4 5 Oeste 12 Oeste 1 894.3 -1.3 94
2019-11-20 15:00:00 4 7 Sur 14 Sur 0.2 894.5 -1.8 85
2019-11-20 14:00:00 4.5 8 Sur 27 Sudeste 0 895 -2 82
2019-11-20 13:00:00 4.2 6 Sur 16 Sudeste 0 895.6 -1.4 84
2019-11-20 12:00:00 4.3 5 Sudeste 9 Sur 0 896.3 -0.7 88
2019-11-20 11:00:00 3.8 4 Sur 12 Este 0 897 0.2 92
2019-11-20 10:00:00 2.4 3 Sur 6 Este 0 897 0.1 94
2019-11-20 09:00:00 1.4 0 Calma 3 Sur 0 897 -0.1 94
2019-11-20 08:00:00 0.4 0 Calma 4 Sudoeste 0 896.8 -0.5 94
2019-11-20 07:00:00 0.4 0 Calma 4 Sudoeste 0 896.9 -1 93
2019-11-20 06:00:00 1.1 0 Calma 3 Sudoeste 0 897.1 -1 91
2019-11-20 05:00:00 1.4 0 Calma 2 Norte 0 897.3 -1.1 89
2019-11-20 04:00:00 1.4 0 Calma 3 Sudeste 0 897.9 -1.1 87
2019-11-20 03:00:00 1.2 2 Este 5 Este 0 898.1 -1.4 85
2019-11-20 02:00:00 1.5 4 Este 5 Este 0 898.4 -1.4 83
2019-11-20 01:00:00 1.9 2 Este 4 Este 0 899 -1 79
2019-11-20 00:00:00 2.4 2 Nordeste 5 Este 0 899.5 -0.4 76
2019-11-19 23:00:00 2.6 0 Calma 3 Este 0 899.8 -0.3 75
2019-11-19 22:00:00 2.9 0 Calma 5 Noroeste 0 900 0 73
2019-11-19 21:00:00 3 2 Noroeste 33 Sudeste 0 899.9 0 73
2019-11-19 20:00:00 3.4 2 Oeste 24 Sudeste 0 900.1 0.2 70
2019-11-19 19:00:00 3.7 3 Sudeste 8 Sur 0 900 -0.1 67
2019-11-19 18:00:00 4.2 4 Sur 13 Sudoeste 0 899.9 -0.5 63
2019-11-19 17:00:00 5.1 6 Sudoeste 17 Sudoeste 0 899.9 -1.1 61
2019-11-19 16:00:00 5.8 7 Sudoeste 17 Sudoeste 0 900.1 -1.5 59
2019-11-19 15:00:00 5.7 8 Sur 17 Sur 0 900.4 -1.9 60
2019-11-19 14:00:00 6.1 7 Sur 14 Sur 0 901 -1.8 62
2019-11-19 13:00:00 5.8 6 Sur 19 Sur 0 901.6 -1.1 61
2019-11-19 12:00:00 5.4 8 Sur 15 Este 0 902.3 -0.1 62
2019-11-19 11:00:00 4.4 6 Sudeste 19 Sur 0 902.8 0.5 67
2019-11-19 10:00:00 3.3 5 Sur 12 Sur 0 902.7 0.5 70
2019-11-19 09:00:00 1.8 3 Noroeste 6 Noroeste 0 902.4 0.4 77
2019-11-19 08:00:00 -0.5 4 Noroeste 7 Noroeste 0 902.3 0.3 82
2019-11-19 07:00:00 0.3 4 Sur 8 Sur 0 902.2 -0.2 76
2019-11-19 06:00:00 0.5 4 Este 6 Este 0 902 -0.4 73
2019-11-19 05:00:00 0.6 2 Norte 5 Norte 0 902 -0.2 72
2019-11-19 04:00:00 0.5 4 Noroeste 6 Oeste 0 902.4 -0.1 70
2019-11-19 03:00:00 0.7 2 Oeste 6 Norte 0 902.4 -0.3 67
2019-11-19 02:00:00 1.3 5 Nordeste 9 Sudeste 0 902.2 -0.6 63
2019-11-19 01:00:00 2 7 Este 14 Este 0 902.5 0.1 62
2019-11-19 00:00:00 2.1 0 Calma 9 Sudeste 0 902.7 0.8 60
2019-11-18 23:00:00 2.5 4 Sudeste 13 Sur 0 902.8 1.4 58
2019-11-18 22:00:00 2.4 7 Sudeste 13 Sur 0 902.4 0.9 57
2019-11-18 21:00:00 3.5 0 Calma 22 Sur 0 901.9 1 52
2019-11-18 20:00:00 4 5 Norte 36 Norte 0 901.4 0.8 48
2019-11-18 19:00:00 3.7 0 Calma 21 Norte 0 901.5 1 50
2019-11-18 18:00:00 4.8 7 Norte 30 Norte 0 900.9 0.9 46
2019-11-18 17:00:00 6.5 14 Norte 32 Nordeste 0 900.6 1.2 42
2019-11-18 16:00:00 6.7 15 Norte 30 Norte 0 900.5 0.8 42
2019-11-18 15:00:00 6.6 13 Norte 28 Noroeste 0 900 0.5 42
2019-11-18 14:00:00 7.5 16 Norte 38 Norte 0 899.4 0.1 40
2019-11-18 13:00:00 7.3 15 Norte 33 Noroeste 0 899.7 1.4 43
2019-11-18 12:00:00 6.2 8 Noroeste 41 Norte 0 899.5 1 46
2019-11-18 11:00:00 5.8 11 Norte 42 Norte 0 899.3 1.4 55
2019-11-18 10:00:00 4.3 21 Norte 45 Norte 0 898.3 0.7 60
2019-11-18 09:00:00 3.9 6 Este 21 Sudeste 0 898.5 1.6 62
2019-11-18 08:00:00 2.6 8 Sudeste 17 Este 0 897.9 1.4 66
2019-11-18 07:00:00 2.4 5 Nordeste 33 Norte 0 897.6 1.4 66
2019-11-18 06:00:00 2.8 14 Norte 39 Norte 0 896.9 0.7 68
2019-11-18 05:00:00 2.7 13 Norte 35 Norte 0 896.5 0.6 70
2019-11-18 04:00:00 2.2 10 Noroeste 20 Noroeste 0 896.2 0.6 71
2019-11-18 03:00:00 3.1 10 Noroeste 29 Norte 0 896.2 1 69
2019-11-18 02:00:00 3.3 4 Nordeste 18 Este 0 895.9 1.1 62
2019-11-18 01:00:00 4.7 4 Sur 24 Norte 0 895.6 0.6 54
2019-11-18 00:00:00 4.7 10 Norte 28 Noroeste 0 895.2 0.2 55
2019-11-17 23:00:00 4.5 6 Noroeste 20 Norte 0 894.8 -0.2 62
2019-11-17 22:00:00 4.1 3 Sudoeste 11 Nordeste 0 895 -0.1 98
2019-11-17 21:00:00 3.5 4 Este 15 Nordeste 0 895 -0.5 99
2019-11-17 20:00:00 3.9 3 Este 11 Sudoeste 0 895 -0.6 99
2019-11-17 19:00:00 4.1 8 Sudoeste 15 Sudoeste 0.2 895.1 -1.1 99
2019-11-17 18:00:00 3.8 8 Sur 17 Sur 0 895.5 -1.1 99
2019-11-17 17:00:00 3.9 8 Sur 19 Sur 0 895.6 -1.8 99
2019-11-17 16:00:00 4.2 6 Sur 15 Sudoeste 0.1 896.2 -1.7 99
2019-11-17 15:00:00 3.9 9 Sudoeste 20 Sudoeste 0.4 896.6 -2.1 97
2019-11-17 14:00:00 3.2 12 Sudoeste 20 Sur 0.3 897.4 -1.8 85
2019-11-17 13:00:00 2.8 9 Sur 18 Sur 0 897.9 -1.3 79
2019-11-17 12:00:00 2.1 9 Sur 14 Sur 0 898.7 -0.4 79
2019-11-17 11:00:00 2.7 6 Sudeste 10 Sudeste 0 899.2 0 83
2019-11-17 10:00:00 1.8 5 Este 9 Sur 0 899.2 0.2 83
2019-11-17 09:00:00 1.9 4 Sur 9 Sudoeste 0 899.1 -0.2 83
2019-11-17 08:00:00 1.4 4 Sudoeste 19 Sudoeste 0 899.2 -0.2 85
2019-11-17 07:00:00 1.5 4 Oeste 13 Oeste 0 899 -0.4 84
2019-11-17 06:00:00 1.3 7 Noroeste 20 Oeste 0 899.3 -0.5 83
2019-11-17 05:00:00 1.7 9 Noroeste 33 Oeste 0 899.4 -0.5 75
2019-11-17 04:00:00 1.9 15 Oeste 32 Oeste 0 899.4 -0.8 72
2019-11-17 03:00:00 1.3 12 Oeste 23 Oeste 0 899.8 -0.5 73
2019-11-17 02:00:00 0.7 11 Oeste 29 Oeste 0 899.9 -0.8 70
2019-11-17 01:00:00 1.3 13 Oeste 26 Oeste 0 900.2 -0.6 62
2019-11-17 00:00:00 1.4 8 Oeste 31 Oeste 0 900.3 -0.1 58
2019-11-16 23:00:00 1.6 12 Oeste 32 Oeste 0 900.7 0.3 57
2019-11-16 22:00:00 1.5 13 Oeste 33 Oeste 0 900.8 0.8 60
2019-11-16 21:00:00 2.4 6 Oeste 23 Oeste 0 900.4 0.8 53
2019-11-16 20:00:00 2.3 4 Sur 9 Sur 0 900.4 0.9 51
2019-11-16 19:00:00 2.8 4 Oeste 15 Oeste 0 900 0.6 50
2019-11-16 18:00:00 4.3 8 Oeste 18 Sudoeste 0 899.6 0.4 48
2019-11-16 17:00:00 5.8 12 Oeste 23 Oeste 0 899.5 0.4 45
2019-11-16 16:00:00 5.8 12 Oeste 24 Oeste 0 899.4 0.4 45
2019-11-16 15:00:00 7.2 5 Este 14 Sudeste 0 899.2 0 46
2019-11-16 14:00:00 6.8 6 Sudeste 14 Sudeste 0 899.1 0 49
2019-11-16 13:00:00 6.3 5 Sudeste 15 Sudeste 0 899 0.3 49
2019-11-16 12:00:00 5.4 6 Sur 13 Sur 0 899.2 1.3 55
2019-11-16 11:00:00 4.2 4 Sudoeste 12 Oeste 0 899.1 1.5 60
2019-11-16 10:00:00 1.9 3 Noroeste 10 Noroeste 0 898.7 1.7 69
2019-11-16 09:00:00 0.2 5 Oeste 8 Oeste 0 897.9 2 75
2019-11-16 08:00:00 -1.2 5 Noroeste 8 Oeste 0 897.6 2 78
2019-11-16 07:00:00 -0.9 3 Oeste 12 Noroeste 0 897 2.5 76
2019-11-16 06:00:00 0 5 Noroeste 15 Nordeste 0 895.9 1.7 70
2019-11-16 05:00:00 -0.1 6 Sudeste 10 Este 0 895.6 1.9 72
2019-11-16 04:00:00 0.2 4 Oeste 27 Norte 0 894.5 0.8 72
2019-11-16 03:00:00 0.4 2 Sudoeste 9 Noroeste 0 894.2 0.7 73
2019-11-16 02:00:00 1.1 3 Norte 13 Noroeste 0 893.7 0.7 71
2019-11-16 01:00:00 1.6 8 Norte 17 Norte 0 893.7 1.2 71
2019-11-16 00:00:00 1.2 6 Noroeste 19 Oeste 0 893.5 1.6 78
2019-11-15 23:00:00 1.1 11 Oeste 22 Oeste 0 893 1.4 76
2019-11-15 22:00:00 1.8 6 Oeste 17 Sudoeste 0.1 892.5 1.2 72
2019-11-15 21:00:00 2.3 4 Oeste 15 Sudeste 0 891.9 0.8 72
2019-11-15 20:00:00 2.4 6 Sur 20 Sur 0 891.6 0.7 71
2019-11-15 19:00:00 2.3 8 Oeste 19 Oeste 0 891.3 0.8 70
2019-11-15 18:00:00 2.3 5 Oeste 15 Noroeste 0 891.1 1.2 66
2019-11-15 17:00:00 3.1 7 Oeste 21 Noroeste 0 890.9 0.8 61
2019-11-15 16:00:00 3.5 10 Noroeste 29 Oeste 0 890.5 -0.2 59
2019-11-15 15:00:00 3.5 9 Noroeste 26 Oeste 0 889.9 -0.9 60
2019-11-15 14:00:00 3.6 8 Noroeste 26 Oeste 0 890.1 -0.4 64
2019-11-15 13:00:00 2.6 9 Oeste 21 Oeste 0 890.7 0.5 69
2019-11-15 12:00:00 3.5 8 Oeste 19 Oeste 0 890.8 0.8 64
2019-11-15 11:00:00 4 8 Oeste 20 Oeste 0 890.5 1.1 64
2019-11-15 10:00:00 2.3 9 Oeste 18 Oeste 0 890.2 1.4 79
2019-11-15 09:00:00 1.3 0 Calma 11 Oeste 0 890 1.4 82
2019-11-15 08:00:00 1 5 Oeste 17 Oeste 0 889.4 1.3 81
2019-11-15 07:00:00 0.9 4 Sur 9 Sur 0 888.8 0.9 77
2019-11-15 06:00:00 1.3 3 Este 16 Este 0 888.6 0.7 75
2019-11-15 05:00:00 0.8 4 Sudeste 18 Sudeste 0 888.1 0.6 83
2019-11-15 04:00:00 0.8 9 Este 18 Sudeste 0 887.9 -0.4 83
2019-11-15 03:00:00 1.1 5 Sudeste 31 Oeste 0 887.9 -0.2 76
2019-11-15 02:00:00 1.7 5 Noroeste 24 Oeste 0 887.5 0.1 73
2019-11-15 01:00:00 1.4 4 Oeste 25 Sudoeste 0 888.3 1.4 77
2019-11-15 00:00:00 1.4 5 Oeste 32 Noroeste 0.1 888.1 1.8 81
2019-11-14 23:00:00 1.6 14 Oeste 38 Oeste 0.1 887.4 2.5 83
2019-11-14 22:00:00 2 15 Oeste 45 Oeste 0.2 886.9 2.4 79
2019-11-14 21:00:00 2.2 11 Noroeste 49 Oeste 0.5 886.3 2 83
2019-11-14 20:00:00 2.3 20 Oeste 68 Noroeste 0.3 884.9 -0.3 81
2019-11-14 19:00:00 2.3 17 Oeste 53 Oeste 0.5 884.5 -0.8 87
2019-11-14 18:00:00 1.9 23 Oeste 50 Oeste 0.4 884.3 -1.5 92
2019-11-14 17:00:00 1.5 17 Sudoeste 49 Oeste 0.3 885.2 -1.2 96
2019-11-14 16:00:00 4.1 22 Oeste 58 Oeste 0 885.3 -2.6 58
2019-11-14 15:00:00 4.8 20 Oeste 62 Sudoeste 0 885.8 -3.3 60
2019-11-14 14:00:00 5.3 30 Oeste 53 Oeste 0 886.4 -3.3 53
2019-11-14 13:00:00 5.5 22 Oeste 41 Oeste 0 887.9 -1.3 51
2019-11-14 12:00:00 4.5 15 Oeste 31 Oeste 0 889.1 -0.3 58
2019-11-14 11:00:00 3.8 11 Oeste 32 Oeste 0 889.7 0.3 58
2019-11-14 10:00:00 3 13 Oeste 40 Oeste 0 889.2 0 61
2019-11-14 09:00:00 2.4 15 Oeste 40 Oeste 0 889.4 0.2 75
2019-11-14 08:00:00 3 11 Noroeste 34 Oeste 0 889.4 -0.6 85
2019-11-14 07:00:00 3.2 14 Oeste 49 Oeste 1.3 889.2 -1.7 88
2019-11-14 06:00:00 5 17 Sudoeste 41 Sudoeste 0.1 889.2 -3 78
2019-11-14 05:00:00 6 22 Oeste 57 Oeste 0 890 -3.1 63
2019-11-14 04:00:00 5.9 24 Oeste 49 Oeste 0 890.9 -3 64
2019-11-14 03:00:00 5.5 23 Oeste 51 Oeste 0 892.2 -2.7 64
2019-11-14 02:00:00 6.1 25 Oeste 46 Oeste 0 893.1 -2.8 66
2019-11-14 01:00:00 7 14 Oeste 33 Oeste 0 893.9 -2.6 66
2019-11-14 00:00:00 8 12 Sudoeste 31 Sudoeste 0 894.9 -2.4 66
2019-11-13 23:00:00 8.5 18 Sudoeste 35 Sudoeste 0 895.9 -1.6 65
2019-11-13 22:00:00 8.6 14 Sudoeste 29 Sudoeste 0 896.5 -1.8 64
2019-11-13 21:00:00 9.1 15 Sudoeste 32 Sudoeste 0 897.3 -0.8 62
2019-11-13 20:00:00 9 15 Oeste 35 Oeste 0 897.5 -0.3 64
2019-11-13 19:00:00 8.8 3 Sudoeste 26 Oeste 0 898.3 0.8 53
2019-11-13 18:00:00 9.6 15 Oeste 29 Oeste 0 898.1 0.5 49
2019-11-13 17:00:00 11.1 17 Oeste 38 Oeste 0 897.8 0.3 45
2019-11-13 16:00:00 12.4 14 Oeste 33 Oeste 0 897.5 -0.1 43
2019-11-13 15:00:00 13.2 12 Sur 23 Sur 0 897.6 0.3 44
2019-11-13 14:00:00 12.4 13 Sudoeste 24 Sudoeste 0 897.5 1.8 47
2019-11-13 13:00:00 12.5 8 Sudoeste 30 Norte 0 897.6 2.2 46
2019-11-13 12:00:00 11.9 12 Nordeste 50 Este 0 897.3 3.2 46
2019-11-13 11:00:00 10.4 22 Este 51 Este 0.1 895.7 3.4 58
2019-11-13 10:00:00 9.7 9 Este 33 Norte 0 895.4 3.5 69
2019-11-13 09:00:00 9.6 13 Noroeste 49 Noroeste 0 894.1 2.3 75
2019-11-13 08:00:00 9.4 6 Sudoeste 21 Sudoeste 0.2 892.3 0.6 91
2019-11-13 07:00:00 9.1 8 Sudoeste 31 Oeste 0.3 891.9 0.1 93
2019-11-13 06:00:00 9.6 13 Sudoeste 35 Sudoeste 0.1 891.8 -0.6 98
2019-11-13 05:00:00 8.9 19 Sudoeste 40 Sudoeste 0.1 891.7 -1.1 99
2019-11-13 04:00:00 7.9 19 Sudoeste 38 Sudoeste 0.6 891.8 -2.1 99
2019-11-13 03:00:00 6.6 16 Sudoeste 35 Sudoeste 1.3 892.4 -2.1 99
2019-11-13 02:00:00 6.1 22 Sudoeste 38 Sudoeste 0.4 892.8 -3.3 99
2019-11-13 01:00:00 5.8 17 Sudoeste 31 Sudoeste 0.1 893.9 -2.6 99
2019-11-13 00:00:00 5.9 16 Sudoeste 31 Sudoeste 0.3 894.5 -2.7 99
2019-11-12 23:00:00 5.9 8 Sudoeste 27 Sudoeste 0.2 896.1 -1.8 99
2019-11-12 22:00:00 6 14 Sudoeste 26 Sudoeste 0.3 896.5 -1.3 99
2019-11-12 21:00:00 6.8 4 Sudoeste 17 Noroeste 0 897.2 -0.8 79
2019-11-12 20:00:00 7.1 4 Sudoeste 34 Sudoeste 0 897.9 -1 65
2019-11-12 19:00:00 7.5 9 Oeste 29 Oeste 0 897.8 -1.3 55
2019-11-12 18:00:00 7.7 9 Sudoeste 20 Sudoeste 0 898 -1.5 53
2019-11-12 17:00:00 8 9 Sudoeste 19 Sudoeste 0 898.9 -1.4 51
2019-11-12 16:00:00 8 3 Sudoeste 19 Sudoeste 0 899.1 -1.8 50
2019-11-12 15:00:00 7.7 9 Oeste 20 Oeste 0 899.5 -2.2 49
2019-11-12 14:00:00 8.9 6 Sur 13 Sudeste 0 900.3 -1.4 46
2019-11-12 13:00:00 9.1 5 Sudoeste 22 Nordeste 0 900.9 -1.4 47
2019-11-12 12:00:00 8.4 6 Nordeste 17 Este 0 901.7 -0.1 51
2019-11-12 11:00:00 6.8 0 Calma 7 Sur 0 901.7 0.3 62
2019-11-12 10:00:00 3.5 0 Calma 11 Sur 0 902.3 1.6 76
2019-11-12 09:00:00 2.5 3 Sudoeste 9 Noroeste 0 901.8 0.7 78
2019-11-12 08:00:00 1.3 3 Noroeste 17 Nordeste 0 901.4 0.2 77
2019-11-12 07:00:00 1.8 4 Este 8 Sudeste 0 900.7 -0.8 75
2019-11-12 06:00:00 2.9 5 Sudeste 8 Sur 0 901.1 -0.7 70
2019-11-12 05:00:00 3 2 Este 9 Oeste 0 901.2 -1.2 69
2019-11-12 04:00:00 4 5 Norte 12 Norte 0 901.5 -1.3 62
2019-11-12 03:00:00 4.5 6 Norte 17 Norte 0 901.8 -1.1 62
2019-11-12 02:00:00 4.9 8 Norte 24 Norte 0 902.4 -0.7 63
2019-11-12 01:00:00 4.1 11 Norte 25 Norte 0 902.8 -0.1 68
2019-11-12 00:00:00 4.2 12 Norte 32 Norte 0 902.9 0.3 70
2019-11-11 23:00:00 4.4 9 Nordeste 26 Nordeste 0 903.1 0.9 72
2019-11-11 22:00:00 4.1 2 Este 19 Nordeste 0 902.9 0.9 73
2019-11-11 21:00:00 5 4 Nordeste 22 Nordeste 0 902.6 1.1 71
2019-11-11 20:00:00 5.8 7 Nordeste 33 Nordeste 0 902.2 0.7 74
2019-11-11 19:00:00 6.2 9 Nordeste 27 Nordeste 0 902 0.9 71
2019-11-11 18:00:00 7.7 0 Calma 17 Sudoeste 0 901.5 1 73
2019-11-11 17:00:00 8.1 4 Sudeste 14 Sudeste 0 901.5 1 73
2019-11-11 16:00:00 7.9 6 Sur 13 Este 0 901.1 0.4 77
2019-11-11 15:00:00 7.6 8 Sudeste 23 Sudeste 0 900.5 -0.7 78
2019-11-11 14:00:00 7.6 6 Sudeste 30 Sudeste 0 900.5 -1.2 79
2019-11-11 13:00:00 6.5 8 Este 27 Sudeste 0 900.7 -1.4 78
2019-11-11 12:00:00 6.1 3 Sudeste 10 Oeste 0 901.2 -1.1 79
2019-11-11 11:00:00 5.2 4 Oeste 10 Oeste 0 901.7 -0.2 82
2019-11-11 10:00:00 4 6 Oeste 14 Oeste 0 902.1 0.2 85
2019-11-11 09:00:00 3.5 0 Calma 9 Oeste 0 902.3 0.3 82
2019-11-11 08:00:00 3.1 3 Noroeste 12 Noroeste 0 901.9 -0.2 82
2019-11-11 07:00:00 2.6 3 Oeste 10 Oeste 0 901.9 -0.6 87
2019-11-11 06:00:00 1.9 5 Oeste 13 Oeste 0 902 -0.5 89
2019-11-11 05:00:00 2.1 7 Oeste 14 Oeste 0 902.1 -0.7 81
2019-11-11 04:00:00 2.1 3 Sudoeste 7 Sudoeste 0 902.5 -1.3 75
2019-11-11 03:00:00 1.9 4 Nordeste 9 Este 0 902.5 -0.5 75
2019-11-11 02:00:00 2.9 5 Sudoeste 12 Sudoeste 0 902.8 -0.5 70
2019-11-11 01:00:00 3 4 Sudoeste 14 Sur 0 903.8 1 70
2019-11-11 00:00:00 2.4 6 Sudoeste 15 Oeste 0 903 0.2 72
2019-11-10 23:00:00 2.1 6 Sur 21 Norte 0 903.3 0.4 70
2019-11-10 22:00:00 3.1 8 Norte 15 Norte 0 902.8 0.6 68
2019-11-10 21:00:00 2.9 0 Calma 18 Nordeste 0 902.8 0.9 71
2019-11-10 20:00:00 3.1 8 Norte 22 Norte 0 902.9 1.7 69
2019-11-10 19:00:00 3.9 11 Norte 29 Noroeste 0 902.2 1.2 63
2019-11-10 18:00:00 4.1 2 Oeste 23 Norte 0 901.9 0.8 68
2019-11-10 17:00:00 3.9 4 Sudoeste 18 Sudoeste 0 901.2 -0.2 77
2019-11-10 16:00:00 3 9 Sudoeste 21 Sudoeste 0 901 -0.8 89
2019-11-10 15:00:00 3.4 5 Oeste 24 Oeste 0.2 901.1 -0.9 89
2019-11-10 14:00:00 2.9 13 Oeste 30 Oeste 0.1 901.4 -0.7 85
2019-11-10 13:00:00 4.8 11 Noroeste 38 Oeste 0 901.8 -0.2 68
2019-11-10 12:00:00 5 15 Oeste 48 Noroeste 0 902 -0.3 64
2019-11-10 11:00:00 4.2 16 Oeste 44 Oeste 0 902.1 0 59
2019-11-10 10:00:00 4.1 11 Noroeste 36 Noroeste 0 902 0.1 60
2019-11-10 09:00:00 2.7 15 Noroeste 38 Noroeste 0 902.3 0.4 62
2019-11-10 08:00:00 2.1 10 Noroeste 28 Noroeste 0 902.1 0.6 60
2019-11-10 07:00:00 2.4 13 Noroeste 37 Noroeste 0 901.9 0.6 59
2019-11-10 06:00:00 2.7 14 Noroeste 36 Noroeste 0 901.9 0.5 58
2019-11-10 05:00:00 3.2 18 Noroeste 45 Noroeste 0 901.5 0.2 57
2019-11-10 04:00:00 3.6 15 Noroeste 48 Noroeste 0 901.3 0.2 60
2019-11-10 03:00:00 4.3 19 Noroeste 44 Noroeste 0.3 901.4 1.3 57
2019-11-10 02:00:00 4 20 Noroeste 45 Noroeste 1.3 901.3 0.3 70
2019-11-10 01:00:00 4.9 17 Noroeste 49 Noroeste 0.4 901.1 0.6 71
2019-11-10 00:00:00 5.7 21 Noroeste 50 Noroeste 0 900.1 -0.6 69
2019-11-09 23:00:00 6.6 13 Noroeste 35 Noroeste 0 901 -0.5 69
2019-11-09 22:00:00 6.4 10 Sudoeste 25 Sudoeste 0 900.5 -1.6 81
2019-11-09 21:00:00 4.4 6 Este 21 Este 0 900.7 -1.7 99
2019-11-09 20:00:00 3.8 5 Sur 14 Sur 0 901.5 -0.6 99
2019-11-09 19:00:00 3.7 5 Sudeste 14 Sudeste 0 902.1 -0.5 99
2019-11-09 18:00:00 3.5 6 Sudoeste 37 Sudoeste 0 902.4 -0.5 99
2019-11-09 17:00:00 4.5 19 Sudoeste 32 Sudoeste 0 902.1 -1.5 99
2019-11-09 16:00:00 5.9 7 Sur 31 Sudoeste 0 902.6 -1.7 87
2019-11-09 15:00:00 8 13 Oeste 36 Oeste 0 902.9 -2.3 76
2019-11-09 14:00:00 7.8 14 Sudoeste 28 Sudoeste 0 903.6 -1.8 70
2019-11-09 13:00:00 6.4 15 Oeste 30 Oeste 0 904.3 -1.3 66
2019-11-09 12:00:00 6 14 Oeste 28 Oeste 0 905.2 -0.4 62
2019-11-09 11:00:00 6.6 0 Calma 12 Este 0 905.4 0.3 58
2019-11-09 10:00:00 4.7 5 Oeste 10 Oeste 0 905.6 0.5 64
2019-11-09 09:00:00 1.9 5 Oeste 13 Oeste 0 905.6 0.6 70
2019-11-09 08:00:00 1.5 6 Nordeste 10 Este 0 905.1 0.4 70
2019-11-09 07:00:00 1.6 7 Este 9 Este 0 905.1 0.6 70
2019-11-09 06:00:00 1.9 6 Este 11 Sudoeste 0 905 0.3 67
2019-11-09 05:00:00 2 5 Oeste 16 Oeste 0 904.7 -0.2 66
2019-11-09 04:00:00 2.6 11 Oeste 24 Oeste 0 904.5 -0.5 64
2019-11-09 03:00:00 3.2 13 Oeste 29 Noroeste 0 904.7 -0.2 60
2019-11-09 02:00:00 3.6 6 Oeste 16 Oeste 0 904.9 0.4 57
2019-11-09 01:00:00 3.8 7 Oeste 26 Oeste 0 905 1.2 57
2019-11-09 00:00:00 4.3 8 Sudoeste 29 Oeste 0 904.9 2.5 56